Bowen, Argentina
Current Conditions -  °F | °C
As of 4:00 AM on Monday 22 Dec 2014 (Local Time) from SAME Reporting Station
Clear Clear  
Wind Chill: 50°   Ceiling: Unl
Heat Index: 50°   Visibility: 6mi
Dew Point: 32°   Wind: 0mph
Humidity: 50%   Direction: NA
Pressure: 30.06"   Gusts: NA
Location:  35°S, 67.52°W
Report Text: SAME 220700Z 00000KT CAVOK 10/00 Q1018
Loading
Personal Weather Stations






























Interactive Weather Map New forecast layout! Learn more

10-Day Weather Forecast

Advertisements
Track Severe Weather on mobile